createdAt,value
2022-10-28T00:03:12.991Z,61.41
2022-10-28T00:08:15.211Z,61.40
2022-10-28T00:13:17.398Z,61.04
2022-10-28T00:18:19.636Z,60.99
2022-10-28T00:23:21.830Z,61.50
2022-10-28T00:28:24.063Z,62.00
2022-10-28T00:33:26.233Z,62.08
2022-10-28T00:38:31.347Z,61.78
2022-10-28T00:43:39.797Z,62.10
2022-10-28T00:48:45.932Z,61.67
2022-10-28T00:53:50.621Z,62.11
2022-10-28T00:58:57.478Z,62.37
2022-10-28T01:04:01.179Z,62.21
2022-10-28T01:09:03.347Z,62.48
2022-10-28T01:14:33.089Z,62.29
2022-10-28T01:20:08.900Z,61.99
2022-10-28T01:25:44.068Z,62.11
2022-10-28T01:31:26.253Z,62.15
2022-10-28T01:36:47.315Z,61.92
2022-10-28T01:41:55.275Z,62.06
2022-10-28T01:46:57.554Z,62.26
2022-10-28T01:52:06.374Z,62.65
2022-10-28T01:57:10.394Z,62.45
2022-10-28T02:02:12.645Z,62.28
2022-10-28T02:07:15.346Z,62.18
2022-10-28T02:12:20.576Z,62.29
2022-10-28T02:18:00.102Z,62.34
2022-10-28T02:23:11.886Z,62.58
2022-10-28T02:28:39.173Z,62.54
2022-10-28T02:33:43.277Z,62.68
2022-10-28T02:38:55.126Z,62.70
2022-10-28T02:44:03.462Z,62.59
2022-10-28T02:49:09.664Z,62.34
2022-10-28T02:54:16.624Z,62.61
2022-10-28T02:59:18.951Z,62.72
2022-10-28T03:04:21.157Z,62.85
2022-10-28T03:09:23.530Z,62.64
2022-10-28T03:14:25.745Z,62.76
2022-10-28T03:19:28.115Z,62.66
2022-10-28T03:24:30.392Z,62.84
2022-10-28T03:29:32.853Z,62.57
2022-10-28T03:34:35.069Z,62.75
2022-10-28T03:39:37.482Z,62.82
2022-10-28T03:44:39.845Z,62.71
2022-10-28T03:49:42.282Z,62.95
2022-10-28T03:54:44.509Z,62.97
2022-10-28T03:59:46.892Z,63.52
2022-10-28T04:04:49.246Z,63.25
2022-10-28T04:09:51.852Z,62.99
2022-10-28T04:14:54.073Z,62.69
2022-10-28T04:19:56.348Z,62.77
2022-10-28T04:24:58.640Z,63.01
2022-10-28T04:30:00.867Z,63.12
2022-10-28T04:35:03.085Z,63.34
2022-10-28T04:40:06.791Z,63.40
2022-10-28T04:45:09.750Z,63.62
2022-10-28T04:50:11.983Z,63.91
2022-10-28T04:55:14.280Z,63.62
2022-10-28T05:00:16.727Z,63.75
2022-10-28T05:05:19.481Z,63.52
2022-10-28T05:10:21.736Z,63.84
2022-10-28T05:15:23.991Z,63.37
2022-10-28T05:20:26.157Z,63.47
2022-10-28T05:25:28.741Z,62.88
2022-10-28T05:30:30.996Z,62.85
2022-10-28T05:35:33.965Z,62.90
2022-10-28T05:40:36.422Z,62.68
2022-10-28T05:45:38.852Z,62.72
2022-10-28T05:50:41.190Z,63.08
2022-10-28T05:55:46.822Z,62.64
2022-10-28T06:00:50.162Z,62.83
2022-10-28T06:05:52.621Z,62.40
2022-10-28T06:10:54.342Z,62.36
2022-10-28T06:15:56.759Z,61.99
2022-10-28T06:20:59.644Z,61.88
2022-10-28T06:26:03.761Z,61.39
2022-10-28T06:31:08.231Z,61.25
2022-10-28T06:36:10.602Z,60.83
2022-10-28T06:41:12.808Z,60.88
2022-10-28T06:46:15.118Z,60.64
2022-10-28T06:51:18.851Z,60.49
2022-10-28T06:56:21.381Z,60.00
2022-10-28T07:01:23.760Z,60.12
2022-10-28T07:06:26.007Z,59.75
2022-10-28T07:11:28.240Z,59.32
2022-10-28T07:16:30.429Z,58.82
2022-10-28T07:21:32.828Z,58.35
2022-10-28T07:26:35.101Z,57.97
2022-10-28T07:31:37.299Z,57.78
2022-10-28T07:36:39.633Z,57.51
2022-10-28T07:41:41.909Z,57.17
2022-10-28T07:46:44.172Z,56.85
2022-10-28T07:51:46.479Z,56.62
2022-10-28T07:56:48.747Z,56.66
2022-10-28T08:01:50.987Z,56.19
2022-10-28T08:11:57.530Z,55.63
2022-10-28T08:16:59.814Z,55.16
2022-10-28T08:22:03.414Z,55.27
2022-10-28T08:27:05.835Z,54.91
2022-10-28T08:32:11.197Z,54.76
2022-10-28T08:37:13.580Z,54.41
2022-10-28T08:42:41.336Z,54.50
2022-10-28T08:48:15.813Z,54.31
2022-10-28T08:53:27.635Z,53.96
2022-10-28T08:58:33.637Z,53.53
2022-10-28T09:03:42.592Z,53.36
2022-10-28T09:08:49.109Z,52.93
2022-10-28T09:14:04.820Z,52.45
2022-10-28T09:19:15.591Z,51.10
2022-10-28T09:24:40.471Z,50.73
2022-10-28T09:30:06.089Z,50.62
2022-10-28T09:35:16.732Z,50.12
2022-10-28T09:40:30.220Z,50.45
2022-10-28T09:45:36.377Z,49.28
2022-10-28T09:50:39.077Z,48.52
2022-10-28T09:55:41.389Z,47.68
2022-10-28T10:00:43.705Z,46.79
2022-10-28T10:05:50.311Z,45.59
2022-10-28T10:10:55.921Z,44.89
2022-10-28T10:16:05.463Z,44.97
2022-10-28T10:21:07.637Z,44.24
2022-10-28T10:26:13.118Z,44.03
2022-10-28T10:31:33.553Z,43.29
2022-10-28T10:36:35.851Z,43.52
2022-10-28T10:41:44.605Z,42.50
2022-10-28T10:47:07.455Z,41.66
2022-10-28T10:52:23.351Z,41.44
2022-10-28T10:57:26.865Z,41.16
2022-10-28T11:02:40.081Z,41.15
2022-10-28T11:07:51.202Z,40.69
2022-10-28T11:12:58.613Z,40.76
2022-10-28T11:18:25.654Z,41.05
2022-10-28T11:23:55.286Z,40.82
2022-10-28T11:29:14.316Z,41.38
2022-10-28T11:34:34.537Z,41.22
2022-10-28T11:40:34.186Z,40.43
2022-10-28T11:45:51.541Z,40.97
2022-10-28T11:50:59.929Z,40.55
2022-10-28T11:56:20.504Z,40.44
2022-10-28T12:01:25.561Z,40.53
2022-10-28T12:06:58.981Z,41.11
2022-10-28T12:12:12.867Z,40.82
2022-10-28T12:17:50.547Z,40.53
2022-10-28T12:22:58.682Z,40.21
2022-10-28T12:28:06.138Z,39.97
2022-10-28T12:33:16.802Z,39.68
2022-10-28T12:38:47.501Z,39.48
2022-10-28T12:44:14.847Z,39.22
2022-10-28T12:49:25.823Z,38.93
2022-10-28T12:54:42.570Z,38.57
2022-10-28T12:59:53.008Z,38.48
2022-10-28T13:04:56.010Z,37.72
2022-10-28T13:10:02.934Z,37.61
2022-10-28T13:15:26.767Z,37.80
2022-10-28T13:20:39.528Z,37.52
2022-10-28T13:25:47.459Z,36.95
2022-10-28T13:31:04.571Z,37.08
2022-10-28T13:36:11.719Z,36.24
2022-10-28T13:41:29.263Z,36.33
2022-10-28T13:46:56.481Z,35.88
2022-10-28T13:52:16.116Z,35.40
2022-10-28T13:57:24.605Z,35.26
2022-10-28T14:02:40.622Z,35.13
2022-10-28T14:07:55.075Z,34.84
2022-10-28T14:13:09.745Z,34.51
2022-10-28T14:18:43.136Z,34.13
2022-10-28T14:23:42.889Z,34.51
2022-10-28T14:28:45.168Z,34.32
2022-10-28T14:34:13.129Z,34.27
2022-10-28T14:39:54.107Z,33.87
2022-10-28T14:45:18.307Z,34.26
2022-10-28T14:50:25.297Z,34.59
2022-10-28T14:55:32.253Z,35.00
2022-10-28T15:00:41.362Z,35.83
2022-10-28T15:05:43.581Z,35.94
2022-10-28T15:10:50.029Z,36.49
2022-10-28T15:15:58.220Z,36.84
2022-10-28T15:21:12.910Z,37.16
2022-10-28T15:26:17.174Z,37.55
2022-10-28T15:31:19.349Z,38.01
2022-10-28T15:36:24.077Z,38.08
2022-10-28T15:41:26.310Z,38.57
2022-10-28T15:46:30.428Z,39.04
2022-10-28T15:51:32.899Z,39.42
2022-10-28T15:56:54.435Z,39.61
2022-10-28T16:01:59.115Z,40.30
2022-10-28T16:07:08.466Z,40.81
2022-10-28T16:12:21.632Z,41.45
2022-10-28T16:17:27.485Z,42.13
2022-10-28T16:22:31.661Z,42.87
2022-10-28T16:27:34.204Z,43.18
2022-10-28T16:32:42.097Z,43.68
2022-10-28T16:37:47.338Z,44.26
2022-10-28T16:42:52.125Z,44.76
2022-10-28T16:48:00.683Z,44.97
2022-10-28T16:53:02.940Z,45.13
2022-10-28T16:58:05.155Z,44.80
2022-10-28T17:03:10.418Z,44.46
2022-10-28T17:08:13.077Z,44.17
2022-10-28T17:13:15.908Z,43.91
2022-10-28T17:18:18.119Z,44.24
2022-10-28T17:23:23.666Z,44.43
2022-10-28T17:28:26.338Z,44.67
2022-10-28T17:33:28.677Z,45.10
2022-10-28T17:38:30.985Z,45.19
2022-10-28T17:43:33.170Z,45.50
2022-10-28T17:48:36.594Z,45.82
2022-10-28T17:53:39.176Z,45.98
2022-10-28T17:58:41.972Z,46.52
2022-10-28T18:03:44.289Z,46.85
2022-10-28T18:08:47.048Z,46.68
2022-10-28T18:13:52.120Z,46.98
2022-10-28T18:18:55.925Z,46.97
2022-10-28T18:24:04.230Z,47.31
2022-10-28T18:29:10.504Z,47.53
2022-10-28T18:34:12.856Z,47.82
2022-10-28T18:39:16.791Z,47.91
2022-10-28T18:44:21.973Z,48.44
2022-10-28T18:49:24.337Z,48.50
2022-10-28T18:54:26.496Z,48.91
2022-10-28T18:59:28.699Z,49.23
2022-10-28T19:04:31.044Z,49.49
2022-10-28T19:09:33.328Z,49.74
2022-10-28T19:14:35.532Z,50.13
2022-10-28T19:19:39.343Z,50.19
2022-10-28T19:24:41.830Z,50.58
2022-10-28T19:29:44.076Z,50.92
2022-10-28T19:34:46.623Z,51.59
2022-10-28T19:39:52.927Z,51.66
2022-10-28T19:44:58.117Z,51.81
2022-10-28T19:50:00.604Z,51.65
2022-10-28T19:55:03.151Z,51.65
2022-10-28T20:00:06.211Z,52.13
2022-10-28T20:05:09.100Z,51.94
2022-10-28T20:10:11.399Z,51.93
2022-10-28T20:15:13.826Z,52.08
2022-10-28T20:20:16.323Z,52.11
2022-10-28T20:25:18.644Z,52.39
2022-10-28T20:30:21.251Z,52.56
2022-10-28T20:35:23.911Z,52.41
2022-10-28T20:40:26.296Z,52.44
2022-10-28T20:45:28.950Z,53.00
2022-10-28T20:50:31.361Z,53.18
2022-10-28T20:55:33.720Z,53.06
2022-10-28T21:00:36.068Z,53.47
2022-10-28T21:05:39.061Z,53.40
2022-10-28T21:10:41.684Z,53.23
2022-10-28T21:15:46.049Z,53.45
2022-10-28T21:20:48.291Z,52.93
2022-10-28T21:26:05.475Z,53.11
2022-10-28T21:31:13.812Z,53.41
2022-10-28T21:36:19.623Z,53.63
2022-10-28T21:41:22.707Z,53.89
2022-10-28T21:46:24.938Z,54.13
2022-10-28T21:51:27.142Z,53.71
2022-10-28T21:56:29.444Z,54.08
2022-10-28T22:01:33.332Z,54.47
2022-10-28T22:06:35.812Z,54.00
2022-10-28T22:11:38.083Z,54.50
2022-10-28T22:16:40.421Z,54.74
2022-10-28T22:21:43.837Z,54.92
2022-10-28T22:26:46.185Z,55.10
2022-10-28T22:31:48.559Z,54.87
2022-10-28T22:36:50.853Z,55.05
2022-10-28T22:41:53.160Z,54.93
2022-10-28T22:46:55.484Z,55.04
2022-10-28T22:51:57.661Z,55.36
2022-10-28T22:56:59.868Z,55.40
2022-10-28T23:02:02.188Z,55.32
2022-10-28T23:07:04.722Z,55.37
2022-10-28T23:12:07.878Z,55.24
2022-10-28T23:17:10.117Z,55.13
2022-10-28T23:22:12.721Z,55.28
2022-10-28T23:27:15.016Z,55.18
2022-10-28T23:32:17.197Z,55.44
2022-10-28T23:37:19.481Z,55.10
2022-10-28T23:42:21.921Z,55.23
2022-10-28T23:47:24.132Z,55.54
2022-10-28T23:52:26.455Z,56.17
2022-10-28T23:57:28.743Z,56.27
